createdAt,value
2022-09-06T00:01:53.914Z,4.28
2022-09-06T00:04:20.785Z,4.78
2022-09-06T00:06:47.669Z,4.40
2022-09-06T00:09:14.391Z,4.45
2022-09-06T00:11:41.200Z,4.57
2022-09-06T00:14:07.989Z,4.22
2022-09-06T00:16:35.473Z,4.50
2022-09-06T00:19:02.191Z,3.90
2022-09-06T00:21:30.520Z,4.65
2022-09-06T00:23:57.306Z,4.30
2022-09-06T00:26:24.576Z,4.47
2022-09-06T00:28:51.319Z,4.32
2022-09-06T00:31:21.149Z,4.28
2022-09-06T00:33:48.522Z,4.07
2022-09-06T00:36:16.052Z,3.85
2022-09-06T00:38:43.265Z,4.10
2022-09-06T00:41:12.173Z,4.18
2022-09-06T00:43:39.591Z,4.47
2022-09-06T00:46:09.120Z,4.05
2022-09-06T00:48:39.124Z,4.30
2022-09-06T00:51:10.823Z,4.57
2022-09-06T00:53:37.677Z,3.97
2022-09-06T00:56:04.994Z,4.28
2022-09-06T00:58:31.850Z,3.78
2022-09-06T01:00:58.801Z,4.07
2022-09-06T01:03:26.290Z,3.97
2022-09-06T01:06:00.447Z,3.78
2022-09-06T01:08:46.006Z,4.38
2022-09-06T01:12:09.661Z,4.28
2022-09-06T01:14:54.066Z,4.05
2022-09-06T01:17:37.823Z,3.65
2022-09-06T01:20:28.340Z,3.70
2022-09-06T01:23:14.039Z,3.97
2022-09-06T01:25:59.978Z,4.10
2022-09-06T01:28:32.101Z,3.63
2022-09-06T01:31:20.729Z,3.88
2022-09-06T01:34:05.867Z,3.70
2022-09-06T01:37:09.547Z,4.00
2022-09-06T01:39:39.591Z,4.05
2022-09-06T01:42:19.636Z,3.72
2022-09-06T01:44:53.460Z,3.70
2022-09-06T01:47:29.125Z,3.55
2022-09-06T01:50:33.180Z,4.10
2022-09-06T01:53:21.841Z,3.90
2022-09-06T01:55:58.274Z,3.35
2022-09-06T01:59:04.910Z,4.05
2022-09-06T02:01:36.538Z,3.65
2022-09-06T02:04:20.635Z,3.20
2022-09-06T02:07:00.634Z,3.65
2022-09-06T02:09:33.728Z,3.50
2022-09-06T02:12:02.584Z,3.67
2022-09-06T02:14:39.428Z,3.53
2022-09-06T02:19:36.821Z,3.88
2022-09-06T02:22:07.678Z,3.53
2022-09-06T02:24:37.268Z,3.58
2022-09-06T02:27:04.414Z,3.70
2022-09-06T02:29:31.276Z,3.80
2022-09-06T02:32:11.428Z,3.70
2022-09-06T02:34:43.189Z,2.97
2022-09-06T02:37:12.630Z,3.55
2022-09-06T02:39:39.858Z,3.30
2022-09-06T02:42:09.777Z,3.50
2022-09-06T02:44:36.518Z,3.55
2022-09-06T02:47:03.733Z,3.63
2022-09-06T02:49:30.987Z,3.60
2022-09-06T02:51:57.829Z,3.80
2022-09-06T02:54:25.080Z,3.67
2022-09-06T02:56:52.615Z,3.88
2022-09-06T02:59:19.551Z,3.42
2022-09-06T03:01:46.383Z,3.40
2022-09-06T03:04:13.138Z,3.70
2022-09-06T03:06:39.895Z,3.85
2022-09-06T03:09:06.588Z,3.60
2022-09-06T03:11:33.566Z,3.60
2022-09-06T03:14:00.268Z,3.60
2022-09-06T03:16:27.232Z,3.60
2022-09-06T03:18:54.041Z,3.67
2022-09-06T03:21:20.816Z,3.60
2022-09-06T03:23:47.553Z,3.92
2022-09-06T03:26:14.293Z,3.63
2022-09-06T03:28:41.166Z,3.33
2022-09-06T03:31:08.008Z,3.78
2022-09-06T03:33:35.192Z,3.42
2022-09-06T03:36:03.164Z,3.30
2022-09-06T03:38:30.346Z,3.55
2022-09-06T03:40:57.476Z,3.13
2022-09-06T03:43:25.754Z,3.17
2022-09-06T03:45:54.945Z,3.25
2022-09-06T03:48:23.639Z,3.30
2022-09-06T03:50:54.132Z,2.85
2022-09-06T03:53:21.900Z,3.60
2022-09-06T03:55:51.269Z,3.50
2022-09-06T03:58:20.032Z,3.42
2022-09-06T04:00:46.896Z,3.20
2022-09-06T04:03:14.029Z,3.08
2022-09-06T04:05:44.475Z,2.97
2022-09-06T04:08:11.166Z,2.80
2022-09-06T04:10:38.865Z,2.83
2022-09-06T04:13:05.575Z,2.88
2022-09-06T04:15:32.313Z,2.85
2022-09-06T04:17:59.011Z,2.90
2022-09-06T04:20:25.739Z,2.60
2022-09-06T04:22:52.461Z,3.03
2022-09-06T04:25:19.159Z,2.88
2022-09-06T04:27:46.001Z,3.00
2022-09-06T04:30:12.755Z,3.00
2022-09-06T04:32:39.474Z,2.65
2022-09-06T04:35:06.628Z,2.70
2022-09-06T04:37:33.365Z,3.03
2022-09-06T04:40:00.221Z,2.60
2022-09-06T04:42:27.306Z,2.70
2022-09-06T04:44:54.251Z,2.40
2022-09-06T04:47:21.062Z,3.13
2022-09-06T04:49:50.940Z,2.50
2022-09-06T04:52:17.831Z,3.35
2022-09-06T04:54:44.573Z,2.47
2022-09-06T04:57:11.318Z,3.13
2022-09-06T04:59:38.082Z,2.38
2022-09-06T05:02:04.967Z,2.33
2022-09-06T05:04:31.785Z,2.70
2022-09-06T05:07:03.290Z,2.75
2022-09-06T05:09:30.132Z,2.70
2022-09-06T05:11:56.850Z,2.78
2022-09-06T05:14:23.674Z,2.53
2022-09-06T05:16:50.715Z,3.05
2022-09-06T05:19:17.739Z,2.42
2022-09-06T05:21:44.539Z,2.40
2022-09-06T05:24:11.421Z,2.80
2022-09-06T05:26:38.431Z,2.85
2022-09-06T05:29:06.214Z,2.30
2022-09-06T05:31:34.446Z,2.42
2022-09-06T05:34:01.479Z,2.45
2022-09-06T05:36:29.312Z,2.38
2022-09-06T05:38:57.334Z,2.45
2022-09-06T05:41:24.539Z,2.47
2022-09-06T05:43:51.339Z,2.38
2022-09-06T05:46:18.252Z,2.42
2022-09-06T05:48:52.310Z,2.45
2022-09-06T05:51:19.039Z,2.40
2022-09-06T05:53:46.339Z,2.40
2022-09-06T05:56:14.642Z,2.60
2022-09-06T05:58:41.433Z,2.00
2022-09-06T06:01:20.065Z,2.28
2022-09-06T06:03:52.599Z,2.10
2022-09-06T06:06:20.351Z,2.17
2022-09-06T06:08:47.311Z,2.40
2022-09-06T06:11:14.531Z,2.53
2022-09-06T06:13:43.110Z,2.10
2022-09-06T06:16:12.713Z,2.58
2022-09-06T06:18:39.907Z,2.25
2022-09-06T06:21:09.712Z,2.50
2022-09-06T06:23:36.688Z,2.50
2022-09-06T06:26:03.890Z,2.58
2022-09-06T06:28:31.030Z,2.55
2022-09-06T06:30:57.862Z,2.30
2022-09-06T06:33:24.619Z,2.10
2022-09-06T06:35:59.200Z,2.25
2022-09-06T06:38:33.634Z,2.03
2022-09-06T06:41:05.804Z,2.45
2022-09-06T06:43:36.280Z,2.50
2022-09-06T06:46:08.581Z,2.17
2022-09-06T06:48:36.150Z,2.20
2022-09-06T06:51:03.398Z,2.05
2022-09-06T06:53:30.121Z,2.30
2022-09-06T06:55:56.861Z,2.35
2022-09-06T06:58:23.834Z,2.55
2022-09-06T07:00:50.741Z,2.33
2022-09-06T07:03:18.301Z,2.08
2022-09-06T07:08:34.492Z,2.00
2022-09-06T07:11:01.533Z,2.08
2022-09-06T07:13:28.498Z,2.20
2022-09-06T07:16:11.053Z,2.25
2022-09-06T07:18:42.029Z,2.10
2022-09-06T07:24:08.256Z,2.53
2022-09-06T07:26:38.245Z,1.98
2022-09-06T07:29:06.332Z,2.05
2022-09-06T07:34:20.953Z,2.10
2022-09-06T07:36:48.393Z,2.55
2022-09-06T07:39:15.253Z,2.05
2022-09-06T07:41:43.003Z,2.08
2022-09-06T07:44:30.088Z,2.65
2022-09-06T07:55:23.911Z,2.22
2022-09-06T07:57:50.641Z,2.17
2022-09-06T08:00:18.595Z,2.00
2022-09-06T08:02:45.310Z,2.10
2022-09-06T08:10:50.824Z,2.45
2022-09-06T08:13:17.579Z,2.28
2022-09-06T08:15:44.318Z,2.28
2022-09-06T08:18:11.771Z,1.90
2022-09-06T08:20:38.517Z,2.22
2022-09-06T08:23:11.386Z,1.95
2022-09-06T08:25:38.115Z,2.40
2022-09-06T08:28:04.792Z,2.15
2022-09-06T08:30:32.654Z,1.90
2022-09-06T08:32:59.368Z,2.28
2022-09-06T08:35:26.019Z,2.40
2022-09-06T08:37:52.856Z,2.10
2022-09-06T08:40:21.933Z,2.08
2022-09-06T08:42:49.051Z,2.33
2022-09-06T08:45:21.749Z,2.20
2022-09-06T08:47:50.682Z,2.38
2022-09-06T08:50:17.961Z,2.13
2022-09-06T08:53:26.991Z,2.35
2022-09-06T08:56:13.146Z,2.22
2022-09-06T08:59:00.922Z,2.10
2022-09-06T09:01:58.098Z,2.28
2022-09-06T09:04:28.930Z,2.35
2022-09-06T09:07:06.863Z,2.20
2022-09-06T09:09:35.285Z,2.28
2022-09-06T09:12:02.849Z,2.10
2022-09-06T09:14:36.053Z,2.15
2022-09-06T09:17:15.744Z,2.25
2022-09-06T09:19:42.700Z,2.30
2022-09-06T09:22:10.231Z,2.65
2022-09-06T09:24:37.558Z,2.15
2022-09-06T09:27:10.602Z,2.25
2022-09-06T09:32:47.641Z,2.53
2022-09-06T09:35:32.234Z,2.47
2022-09-06T09:38:12.204Z,2.60
2022-09-06T09:41:01.494Z,2.55
2022-09-06T09:43:32.054Z,2.78
2022-09-06T09:46:09.610Z,2.47
2022-09-06T09:48:36.501Z,2.10
2022-09-06T09:51:27.495Z,2.00
2022-09-06T09:54:04.066Z,2.28
2022-09-06T09:59:27.440Z,2.50
2022-09-06T10:01:57.221Z,2.40
2022-09-06T10:04:45.550Z,2.70
2022-09-06T10:07:24.278Z,2.33
2022-09-06T10:09:58.601Z,2.80
2022-09-06T10:12:30.137Z,2.50
2022-09-06T10:14:57.747Z,2.42
2022-09-06T10:17:50.845Z,2.55
2022-09-06T10:20:18.260Z,2.28
2022-09-06T10:22:48.714Z,2.35
2022-09-06T10:25:34.342Z,2.17
2022-09-06T10:28:30.315Z,2.42
2022-09-06T10:31:12.852Z,2.60
2022-09-06T10:34:02.001Z,2.50
2022-09-06T10:36:38.682Z,2.78
2022-09-06T10:39:53.953Z,2.63
2022-09-06T10:42:56.223Z,2.30
2022-09-06T10:45:36.419Z,2.50
2022-09-06T10:48:15.791Z,2.25
2022-09-06T10:50:46.049Z,2.70
2022-09-06T10:53:26.027Z,2.50
2022-09-06T10:56:06.833Z,2.65
2022-09-06T11:01:38.793Z,2.85
2022-09-06T11:04:12.770Z,2.78
2022-09-06T11:06:54.787Z,2.75
2022-09-06T11:10:07.784Z,2.42
2022-09-06T11:12:43.256Z,2.70
2022-09-06T11:15:17.334Z,2.60
2022-09-06T11:18:06.687Z,2.72
2022-09-06T11:20:39.528Z,2.70
2022-09-06T11:23:24.918Z,3.15
2022-09-06T11:26:06.518Z,3.13
2022-09-06T11:28:44.003Z,3.10
2022-09-06T11:34:10.206Z,2.72
2022-09-06T11:36:45.173Z,3.08
2022-09-06T11:39:12.047Z,3.00
2022-09-06T11:41:41.092Z,2.65
2022-09-06T11:44:11.033Z,3.38
2022-09-06T11:46:41.041Z,2.88
2022-09-06T11:49:31.088Z,3.03
2022-09-06T11:51:57.949Z,3.33
2022-09-06T11:54:51.975Z,3.08
2022-09-06T11:57:22.887Z,3.10
2022-09-06T12:00:02.905Z,2.92
2022-09-06T12:02:38.939Z,3.00
2022-09-06T12:05:07.753Z,3.08
2022-09-06T12:07:39.018Z,3.05
2022-09-06T12:10:31.033Z,3.20
2022-09-06T12:12:58.772Z,2.97
2022-09-06T12:15:44.382Z,3.10
2022-09-06T12:18:43.203Z,3.40
2022-09-06T12:21:31.110Z,3.03
2022-09-06T12:23:58.098Z,3.00
2022-09-06T12:27:12.552Z,2.80
2022-09-06T12:29:40.083Z,2.85
2022-09-06T12:32:06.997Z,3.00
2022-09-06T12:34:35.287Z,3.00
2022-09-06T12:37:05.356Z,3.40
2022-09-06T12:39:32.646Z,3.33
2022-09-06T12:42:13.289Z,2.88
2022-09-06T12:44:49.121Z,3.35
2022-09-06T12:47:29.155Z,3.10
2022-09-06T12:50:10.551Z,4.10
2022-09-06T12:52:57.963Z,2.90
2022-09-06T12:55:35.356Z,3.63
2022-09-06T12:58:04.643Z,3.17
2022-09-06T13:00:50.180Z,3.25
2022-09-06T13:03:19.925Z,3.50
2022-09-06T13:05:47.189Z,2.85
2022-09-06T13:08:25.930Z,3.38
2022-09-06T13:10:53.262Z,3.25
2022-09-06T13:13:23.683Z,3.20
2022-09-06T13:15:50.869Z,4.18
2022-09-06T13:18:37.924Z,3.25
2022-09-06T13:21:12.051Z,3.65
2022-09-06T13:23:47.648Z,3.30
2022-09-06T13:26:15.303Z,3.78
2022-09-06T13:28:42.071Z,3.58
2022-09-06T13:31:21.060Z,3.45
2022-09-06T13:34:00.306Z,3.30
2022-09-06T13:36:30.655Z,3.20
2022-09-06T13:38:58.554Z,3.20
2022-09-06T13:41:26.744Z,3.90
2022-09-06T13:44:16.402Z,3.08
2022-09-06T13:46:44.018Z,3.03
2022-09-06T13:49:10.820Z,3.50
2022-09-06T13:51:44.057Z,2.83
2022-09-06T13:54:17.032Z,3.00
2022-09-06T13:56:48.659Z,3.35
2022-09-06T13:59:16.095Z,3.17
2022-09-06T14:01:45.337Z,2.95
2022-09-06T14:04:15.221Z,3.10
2022-09-06T14:06:42.290Z,2.90
2022-09-06T14:09:09.499Z,3.20
2022-09-06T14:11:36.770Z,2.78
2022-09-06T14:14:04.029Z,3.42
2022-09-06T14:16:31.554Z,3.15
2022-09-06T14:18:58.354Z,3.00
2022-09-06T14:21:27.381Z,3.20
2022-09-06T14:23:54.265Z,3.13
2022-09-06T14:26:22.111Z,3.08
2022-09-06T14:28:49.910Z,3.83
2022-09-06T14:31:23.059Z,3.58
2022-09-06T14:33:49.947Z,3.38
2022-09-06T14:36:18.865Z,3.33
2022-09-06T14:38:46.428Z,3.15
2022-09-06T14:41:14.525Z,3.92
2022-09-06T14:43:47.996Z,3.20
2022-09-06T14:46:18.178Z,3.17
2022-09-06T14:48:46.239Z,3.40
2022-09-06T14:51:21.802Z,3.20
2022-09-06T14:53:50.758Z,3.50
2022-09-06T14:56:17.941Z,4.07
2022-09-06T14:58:44.695Z,3.40
2022-09-06T15:01:20.519Z,3.25
2022-09-06T15:03:51.678Z,3.33
2022-09-06T15:06:22.806Z,3.40
2022-09-06T15:08:49.963Z,3.28
2022-09-06T15:11:38.474Z,3.53
2022-09-06T15:14:08.488Z,3.20
2022-09-06T15:16:36.127Z,3.33
2022-09-06T15:19:03.122Z,3.15
2022-09-06T15:21:30.765Z,3.28
2022-09-06T15:23:57.870Z,3.45
2022-09-06T15:26:25.151Z,3.47
2022-09-06T15:28:52.239Z,3.22
2022-09-06T15:31:19.610Z,3.50
2022-09-06T15:33:48.891Z,3.50
2022-09-06T15:36:16.620Z,3.75
2022-09-06T15:38:44.283Z,3.20
2022-09-06T15:41:13.459Z,4.15
2022-09-06T15:43:46.875Z,3.50
2022-09-06T15:46:39.700Z,3.30
2022-09-06T15:49:07.704Z,3.35
2022-09-06T15:51:36.452Z,3.67
2022-09-06T15:54:03.550Z,3.42
2022-09-06T15:56:30.366Z,3.80
2022-09-06T15:58:57.033Z,3.35
2022-09-06T16:01:25.661Z,3.90
2022-09-06T16:03:55.105Z,3.47
2022-09-06T16:06:27.775Z,3.50
2022-09-06T16:09:07.066Z,3.70
2022-09-06T16:11:35.709Z,3.70
2022-09-06T16:14:04.968Z,4.07
2022-09-06T16:16:32.628Z,3.72
2022-09-06T16:19:00.154Z,4.15
2022-09-06T16:21:30.395Z,3.65
2022-09-06T16:24:02.885Z,4.25
2022-09-06T16:26:32.946Z,3.83
2022-09-06T16:29:00.716Z,4.10
2022-09-06T16:31:28.879Z,3.67
2022-09-06T16:33:57.713Z,3.45
2022-09-06T16:36:25.198Z,4.00
2022-09-06T16:38:52.138Z,3.90
2022-09-06T16:41:40.402Z,3.60
2022-09-06T16:44:08.695Z,3.55
2022-09-06T16:46:35.599Z,3.60
2022-09-06T16:49:03.078Z,3.80
2022-09-06T16:51:33.800Z,4.10
2022-09-06T16:54:01.129Z,3.70
2022-09-06T16:56:34.782Z,3.58
2022-09-06T16:59:07.035Z,3.85
2022-09-06T17:01:35.040Z,3.97
2022-09-06T17:04:02.264Z,4.10
2022-09-06T17:06:29.413Z,3.63
2022-09-06T17:08:58.454Z,3.92
2022-09-06T17:11:25.603Z,3.80
2022-09-06T17:13:54.559Z,4.18
2022-09-06T17:16:40.435Z,4.25
2022-09-06T17:19:08.753Z,4.20
2022-09-06T17:21:35.674Z,4.43
2022-09-06T17:24:05.575Z,4.22
2022-09-06T17:26:34.339Z,3.97
2022-09-06T17:29:01.682Z,3.78
2022-09-06T17:31:28.409Z,4.47
2022-09-06T17:33:55.194Z,3.90
2022-09-06T17:36:25.136Z,3.83
2022-09-06T17:38:53.551Z,4.18
2022-09-06T17:41:22.304Z,4.18
2022-09-06T17:43:49.247Z,4.05
2022-09-06T17:46:16.474Z,4.22
2022-09-06T17:48:43.543Z,4.30
2022-09-06T17:51:11.712Z,3.78
2022-09-06T17:53:38.938Z,4.03
2022-09-06T17:56:08.073Z,3.88
2022-09-06T17:58:36.275Z,3.90
2022-09-06T18:01:11.282Z,4.05
2022-09-06T18:03:42.259Z,4.13
2022-09-06T18:06:14.635Z,3.90
2022-09-06T18:08:43.902Z,4.40
2022-09-06T18:11:13.378Z,4.10
2022-09-06T18:13:41.965Z,3.95
2022-09-06T18:16:09.918Z,4.03
2022-09-06T18:18:37.080Z,4.28
2022-09-06T18:21:06.886Z,3.58
2022-09-06T18:23:34.813Z,3.60
2022-09-06T18:26:08.287Z,4.40
2022-09-06T18:28:36.985Z,4.53
2022-09-06T18:31:09.836Z,4.10
2022-09-06T18:33:37.346Z,4.35
2022-09-06T18:36:05.238Z,4.47
2022-09-06T18:38:32.100Z,4.53
2022-09-06T18:41:01.414Z,4.10
2022-09-06T18:43:31.038Z,3.80
2022-09-06T18:46:08.793Z,3.85
2022-09-06T18:48:38.410Z,4.45
2022-09-06T18:51:11.540Z,4.32
2022-09-06T18:53:43.984Z,3.97
2022-09-06T18:56:13.502Z,4.25
2022-09-06T18:58:41.510Z,4.20
2022-09-06T19:01:11.380Z,4.57
2022-09-06T19:03:39.639Z,4.25
2022-09-06T19:06:20.665Z,4.72
2022-09-06T19:08:49.037Z,4.43
2022-09-06T19:11:18.768Z,4.25
2022-09-06T19:13:49.274Z,3.95
2022-09-06T19:16:16.033Z,4.38
2022-09-06T19:18:42.977Z,4.20
2022-09-06T19:21:12.921Z,4.00
2022-09-06T19:23:42.355Z,3.80
2022-09-06T19:26:13.714Z,4.38
2022-09-06T19:28:40.799Z,4.05
2022-09-06T19:31:13.119Z,3.78
2022-09-06T19:33:41.170Z,3.90
2022-09-06T19:36:11.960Z,4.20
2022-09-06T19:39:01.393Z,4.07
2022-09-06T19:41:27.364Z,4.28
2022-09-06T19:43:56.167Z,3.83
2022-09-06T19:46:24.144Z,4.30
2022-09-06T19:48:53.504Z,4.20
2022-09-06T19:51:21.054Z,4.20
2022-09-06T19:53:50.292Z,4.50
2022-09-06T19:56:23.323Z,4.75
2022-09-06T19:58:58.595Z,4.65
2022-09-06T20:01:29.251Z,4.85
2022-09-06T20:03:56.886Z,4.55
2022-09-06T20:06:35.466Z,4.57
2022-09-06T20:09:09.215Z,4.35
2022-09-06T20:11:40.900Z,4.53
2022-09-06T20:14:08.478Z,5.28
2022-09-06T20:16:39.492Z,5.07
2022-09-06T20:19:08.719Z,4.28
2022-09-06T20:21:35.509Z,4.85
2022-09-06T20:24:02.691Z,5.28
2022-09-06T20:26:30.407Z,4.05
2022-09-06T20:28:59.293Z,4.75
2022-09-06T20:31:28.589Z,4.50
2022-09-06T20:33:55.645Z,5.28
2022-09-06T20:36:22.437Z,4.90
2022-09-06T20:38:49.762Z,5.25
2022-09-06T20:41:19.237Z,4.45
2022-09-06T20:43:50.775Z,4.65
2022-09-06T20:46:19.617Z,4.65
2022-09-06T20:48:47.239Z,4.82
2022-09-06T20:51:19.457Z,5.00
2022-09-06T20:53:57.355Z,4.68
2022-09-06T20:56:29.900Z,5.05
2022-09-06T20:59:02.374Z,5.05
2022-09-06T21:01:33.359Z,4.97
2022-09-06T21:04:01.599Z,4.97
2022-09-06T21:06:30.616Z,4.78
2022-09-06T21:08:57.815Z,5.18
2022-09-06T21:11:24.714Z,4.70
2022-09-06T21:13:53.314Z,5.00
2022-09-06T21:16:24.731Z,4.65
2022-09-06T21:18:55.718Z,5.10
2022-09-06T21:21:23.038Z,4.97
2022-09-06T21:23:49.799Z,4.70
2022-09-06T21:26:17.269Z,4.63
2022-09-06T21:28:45.574Z,5.20
2022-09-06T21:31:15.783Z,4.97
2022-09-06T21:33:44.518Z,4.90
2022-09-06T21:36:13.664Z,5.35
2022-09-06T21:38:42.815Z,5.20
2022-09-06T21:41:11.046Z,5.20
2022-09-06T21:43:37.785Z,5.38
2022-09-06T21:46:06.934Z,4.53
2022-09-06T21:48:44.843Z,5.15
2022-09-06T21:51:14.104Z,5.35
2022-09-06T21:53:45.117Z,5.40
2022-09-06T21:56:12.829Z,4.95
2022-09-06T21:58:40.071Z,5.30
2022-09-06T22:01:07.877Z,5.50
2022-09-06T22:03:40.278Z,5.25
2022-09-06T22:06:31.342Z,5.40
2022-09-06T22:09:00.288Z,5.25
2022-09-06T22:11:29.935Z,5.75
2022-09-06T22:14:05.618Z,5.85
2022-09-06T22:16:34.234Z,5.50
2022-09-06T22:19:01.389Z,5.78
2022-09-06T22:21:28.066Z,5.35
2022-09-06T22:24:06.293Z,5.78
2022-09-06T22:26:34.999Z,5.90
2022-09-06T22:29:04.328Z,5.80
2022-09-06T22:31:32.346Z,5.20
2022-09-06T22:33:59.692Z,5.93
2022-09-06T22:36:27.511Z,6.18
2022-09-06T22:38:58.527Z,5.95
2022-09-06T22:41:27.238Z,6.05
2022-09-06T22:43:54.656Z,6.47
2022-09-06T22:46:21.437Z,5.88
2022-09-06T22:48:49.190Z,6.60
2022-09-06T22:51:16.237Z,6.82
2022-09-06T22:53:43.138Z,6.55
2022-09-06T22:56:09.957Z,6.90
2022-09-06T22:58:36.883Z,6.95
2022-09-06T23:01:08.722Z,7.18
2022-09-06T23:03:35.707Z,6.47
2022-09-06T23:06:02.571Z,7.03
2022-09-06T23:08:30.136Z,7.85
2022-09-06T23:10:56.942Z,7.95
2022-09-06T23:13:23.758Z,8.15
2022-09-06T23:15:50.426Z,7.35
2022-09-06T23:18:17.160Z,8.23
2022-09-06T23:20:44.225Z,7.38
2022-09-06T23:23:11.026Z,7.32
2022-09-06T23:25:38.835Z,7.30
2022-09-06T23:28:06.102Z,7.78
2022-09-06T23:30:36.001Z,7.65
2022-09-06T23:33:02.673Z,7.25
2022-09-06T23:35:29.372Z,7.32
2022-09-06T23:37:56.211Z,8.10
2022-09-06T23:40:22.876Z,7.93
2022-09-06T23:42:49.591Z,8.43
2022-09-06T23:45:16.292Z,8.85
2022-09-06T23:47:43.015Z,8.15
2022-09-06T23:50:09.810Z,7.60
2022-09-06T23:52:36.489Z,8.23
2022-09-06T23:55:03.906Z,8.30
2022-09-06T23:57:30.612Z,8.40
2022-09-06T23:59:57.257Z,8.27
